Time;durP1;ratioP1;P1;durP2;ratioP2;P2;SDS_P1;SDS_P2;PMS_P1;PMS_P2;Temp;Humidity;BMP_temperature;BMP_pressure;BME280_temperature;BME280_humidity;BME280_pressure;Samples;Min_cycle;Max_cycle;Signal;HPM_P1;HPM_P2
2023/10/11 00:01:29;;;;;;;1999.90;999.90;;;;;;;10.21;100.00;98184.25;18624765;31;20108;-59
2023/10/11 00:11:45;;;;;;;1999.90;999.90;;;;;;;10.21;100.00;98180.72;18611514;31;20048;-59
2023/10/11 00:21:54;;;;;;;1999.90;999.90;;;;;;;10.33;100.00;98186.78;18614976;31;20051;-59
2023/10/11 00:32:09;;;;;;;1999.90;999.90;;;;;;;10.44;100.00;98172.34;18636539;31;20206;-59
2023/10/11 00:42:19;;;;;;;1999.90;999.90;;;;;;;10.51;100.00;98164.81;18635216;31;20436;-59
2023/10/11 00:52:50;;;;;;;1999.90;999.90;;;;;;;10.50;100.00;98165.09;18634977;31;20064;-59
2023/10/11 01:03:21;;;;;;;1999.90;999.90;;;;;;;10.42;100.00;98160.97;18634392;31;20056;-59
2023/10/11 01:13:41;;;;;;;1999.90;999.90;;;;;;;10.25;100.00;98155.66;18633477;31;20052;-59
2023/10/11 01:23:44;;;;;;;1999.90;999.90;;;;;;;10.05;100.00;98152.75;18633529;31;20098;-59
2023/10/11 01:33:52;;;;;;;1999.90;999.90;;;;;;;9.87;100.00;98143.91;18632306;31;20049;-59
2023/10/11 01:43:56;;;;;;;1999.90;999.90;;;;;;;9.88;100.00;98136.63;18631861;31;20337;-59
2023/10/11 01:54:00;;;;;;;1999.90;999.90;;;;;;;9.81;100.00;98124.13;18631288;31;20107;-59
2023/10/11 02:04:03;;;;;;;1999.90;999.90;;;;;;;9.80;100.00;98132.50;18616555;31;20079;-59
2023/10/11 02:14:17;;;;;;;1999.90;999.90;;;;;;;9.77;100.00;98122.19;18629842;31;20052;-59
2023/10/11 02:24:35;;;;;;;1999.90;999.90;;;;;;;9.74;100.00;98117.28;18629378;31;20056;-59
2023/10/11 02:34:52;;;;;;;1999.90;999.90;;;;;;;9.66;100.00;98115.84;18628643;31;20056;-59
2023/10/11 02:45:07;;;;;;;1999.90;999.90;;;;;;;9.63;100.00;98119.06;18627514;31;20052;-59
2023/10/11 02:55:28;;;;;;;1999.90;999.90;;;;;;;9.63;100.00;98121.75;18613438;31;20112;-59
2023/10/11 03:05:31;;;;;;;1999.90;999.90;;;;;;;9.53;100.00;98130.56;18620411;31;20394;-58
2023/10/11 03:15:38;;;;;;;1999.90;999.90;;;;;;;9.62;100.00;98134.47;18598891;31;20052;-59
2023/10/11 03:25:49;;;;;;;1999.90;999.90;;;;;;;9.61;100.00;98140.91;18611760;31;20112;-59
2023/10/11 03:35:54;;;;;;;1999.90;999.90;;;;;;;9.56;100.00;98126.53;18611878;31;20064;-59
2023/10/11 03:45:59;;;;;;;1999.90;999.90;;;;;;;9.54;100.00;98134.06;18625201;31;20063;-59
2023/10/11 03:56:02;;;;;;;1999.90;999.90;;;;;;;9.27;100.00;98129.44;18636620;31;20044;-59
2023/10/11 04:06:13;;;;;;;1999.90;999.90;;;;;;;9.45;100.00;98131.81;18638086;31;20468;-58
2023/10/11 04:16:17;;;;;;;1999.90;999.90;;;;;;;9.40;100.00;98128.22;18637431;31;20053;-59
2023/10/11 04:26:36;;;;;;;1999.90;999.90;;;;;;;9.32;100.00;98124.91;18622575;31;20119;-59
2023/10/11 04:36:59;;;;;;;1999.90;999.90;;;;;;;9.20;100.00;98134.19;18635758;31;20117;-58
2023/10/11 04:47:11;;;;;;;1999.90;999.90;;;;;;;9.09;100.00;98136.75;18635366;31;20110;-59
2023/10/11 04:57:17;;;;;;;1999.90;999.90;;;;;;;9.11;100.00;98145.44;18634910;31;20060;-59
2023/10/11 05:07:21;;;;;;;1999.90;999.90;;;;;;;9.08;100.00;98154.00;18633685;31;20122;-59
2023/10/11 05:58:46;;;;;;;1999.90;999.90;;;;;;;9.02;100.00;98168.47;18286154;32;20088;-57
2023/10/11 06:08:50;;;;;;;1999.90;999.90;;;;;;;9.11;100.00;98166.16;18298527;32;20086;-57
2023/10/11 06:18:56;;;;;;;1999.90;999.90;;;;;;;8.96;100.00;98182.94;18284265;32;20093;-57
2023/10/11 06:29:08;;;;;;;1999.90;999.90;;;;;;;8.97;100.00;98182.69;18372355;31;20105;-58
2023/10/11 06:39:33;;;;;;;1999.90;999.90;;;;;;;9.13;100.00;98185.63;18628427;31;20060;-58
2023/10/11 06:49:40;;;;;;;1999.90;999.90;;;;;;;9.37;100.00;98188.91;18627740;31;20060;-58
2023/10/11 06:59:43;;;;;;;1999.90;999.90;;;;;;;9.63;100.00;98187.41;18613049;31;20056;-58
2023/10/11 07:09:59;;;;;;;1999.90;999.90;;;;;;;9.86;100.00;98193.59;18626893;31;20052;-58
2023/10/11 07:20:29;;;;;;;1999.90;999.90;;;;;;;10.29;100.00;98191.06;18626658;31;20067;-58
2023/10/11 07:30:37;;;;;;;1999.90;999.90;;;;;;;10.82;100.00;98194.81;18614405;31;20061;-58
2023/10/11 07:40:46;;;;;;;1999.90;999.90;;;;;;;11.29;100.00;98211.38;18604237;31;20053;-58
2023/10/11 07:50:49;;;;;;;1999.90;999.90;;;;;;;11.70;100.00;98217.84;18625342;31;20060;-58
2023/10/11 08:00:52;;;;;;;1999.90;999.90;;;;;;;12.34;100.00;98215.91;18610578;31;20060;-58
2023/10/11 08:10:55;;;;;;;1999.90;999.90;;;;;;;12.69;100.00;98227.13;18624473;31;20112;-58
2023/10/11 08:20:58;;;;;;;1999.90;999.90;;;;;;;13.30;100.00;98236.31;18624272;31;20131;-58
2023/10/11 08:31:02;;;;;;;1999.90;999.90;;;;;;;13.85;100.00;98218.28;18608744;31;20107;-57
2023/10/11 08:41:07;;;;;;;1999.90;999.90;;;;;;;14.29;100.00;98213.16;18626939;31;20048;-58
2023/10/11 08:51:11;;;;;;;1999.90;999.90;;;;;;;14.80;100.00;98210.13;18635370;31;20424;-58
2023/10/11 09:01:15;;;;;;;1999.90;999.90;;;;;;;15.34;100.00;98204.75;18634608;31;20452;-58
2023/10/11 09:11:33;;;;;;;1999.90;999.90;;;;;;;15.71;100.00;98206.78;18619730;31;20065;-58
2023/10/11 09:21:37;;;;;;;1999.90;999.90;;;;;;;16.29;100.00;98206.91;18633792;31;20086;-58
2023/10/11 09:31:57;;;;;;;1999.90;999.90;;;;;;;16.86;100.00;98217.81;18626303;31;20107;-58
2023/10/11 09:42:04;;;;;;;1999.90;999.90;;;;;;;17.33;100.00;98217.87;18632522;31;20097;-58
2023/10/11 09:52:23;;;;;;;1999.90;999.90;;;;;;;17.81;100.00;98220.22;18631648;31;20101;-58
2023/10/11 10:02:38;;;;;;;1999.90;999.90;;;;;;;18.02;100.00;98217.09;18616656;31;20092;-58
2023/10/11 10:13:09;;;;;;;1999.90;999.90;;;;;;;18.41;100.00;98223.94;18615998;31;20069;-58
2023/10/11 10:23:15;;;;;;;1999.90;999.90;;;;;;;19.03;100.00;98217.84;18623013;31;20061;-58
2023/10/11 10:33:23;;;;;;;1999.90;999.90;;;;;;;18.83;100.00;98210.94;18628780;31;20065;-58
2023/10/11 10:43:27;;;;;;;1999.90;999.90;;;;;;;19.20;100.00;98203.47;18628120;31;20052;-58
2023/10/11 10:53:47;;;;;;;1999.90;999.90;;;;;;;19.61;100.00;98191.38;18613237;31;20065;-58
2023/10/11 11:03:57;;;;;;;1999.90;999.90;;;;;;;19.74;100.00;98184.16;18627016;31;20477;-58
2023/10/11 11:14:11;;;;;;;1999.90;999.90;;;;;;;20.75;89.47;98163.34;18627325;31;20116;-58
2023/10/11 11:24:18;;;;;;;1999.90;999.90;;;;;;;20.59;100.00;98141.03;18626115;31;20101;-58
2023/10/11 11:34:34;;;;;;;1999.90;999.90;;;;;;;20.62;100.00;98127.44;18625877;31;20071;-58
2023/10/11 11:44:41;;;;;;;1999.90;999.90;;;;;;;21.27;100.00;98124.72;18625383;31;20040;-58
2023/10/11 11:54:47;;;;;;;1999.90;999.90;;;;;;;21.82;100.00;98106.50;18611247;31;20061;-58
2023/10/11 12:04:49;;;;;;;1999.90;999.90;;;;;;;22.44;100.00;98087.56;18624809;31;20064;-58
2023/10/11 12:14:52;;;;;;;1999.90;999.90;;;;;;;22.85;100.00;98085.06;18617941;31;20056;-58
2023/10/11 12:24:58;;;;;;;;;;;;;;;23.43;98.49;98087.78;18637373;31;20041;-58
2023/10/11 12:35:05;;;;;;;1999.90;999.90;;;;;;;24.03;100.00;98071.50;18637514;31;20335;-58
2023/10/11 12:45:08;;;;;;;1999.90;999.90;;;;;;;23.95;100.00;98058.63;18568815;32;20121;-58
2023/10/11 12:55:12;;;;;;;1999.90;999.90;;;;;;;23.88;95.64;98039.09;18570131;31;20355;-58
2023/10/11 13:05:16;;;;;;;1999.90;999.90;;;;;;;23.63;85.82;98030.06;18568223;31;20052;-58
2023/10/11 13:15:22;;;;;;;1999.90;999.90;;;;;;;23.87;77.54;98029.16;18568624;31;20338;-58
2023/10/11 13:25:25;;;;;;;1999.90;999.90;;;;;;;23.86;63.96;98022.06;18567650;32;20091;-58
2023/10/11 13:35:35;;;;;;;1999.90;999.90;;;;;;;23.65;66.92;98002.88;18567415;32;20089;-58
2023/10/11 13:45:40;;;;;;;1999.90;999.90;;;;;;;23.36;76.05;97990.97;18624771;31;20048;-58
2023/10/11 13:55:43;;;;;;;1999.90;999.90;;;;;;;22.97;91.09;97977.53;18631627;31;20064;-58
2023/10/11 14:05:50;;;;;;;1999.90;999.90;;;;;;;22.79;79.71;97978.88;18616303;31;20428;-58
2023/10/11 14:16:04;;;;;;;1999.90;999.90;;;;;;;22.79;79.74;97965.09;18630122;31;20083;-58
2023/10/11 14:26:06;;;;;;;1999.90;999.90;;;;;;;22.90;81.91;97955.25;18616677;31;20086;-58
2023/10/11 14:36:10;;;;;;;1999.90;999.90;;;;;;;22.64;85.26;97944.56;18628148;31;20064;-58
2023/10/11 14:46:14;;;;;;;1999.90;999.90;;;;;;;22.60;91.31;97938.13;18628532;31;20079;-58
2023/10/11 14:56:17;;;;;;;1999.90;999.90;;;;;;;22.45;90.45;97939.59;18606680;31;20112;-58
2023/10/11 15:06:21;;;;;;;1999.90;999.90;;;;;;;22.05;100.00;97937.38;18627182;31;20060;-58
2023/10/11 15:16:26;;;;;;;1999.90;999.90;;;;;;;21.81;100.00;97923.19;18626490;31;20096;-58
2023/10/11 15:26:29;;;;;;;1999.90;999.90;;;;;;;21.48;100.00;97918.44;18612477;31;20056;-58
2023/10/11 15:36:32;;;;;;;1999.90;999.90;;;;;;;21.18;100.00;97917.69;18625403;31;20116;-58
2023/10/11 15:46:35;;;;;;;1999.90;999.90;;;;;;;20.95;100.00;97917.19;18554098;32;20087;-58
2023/10/11 15:56:38;;;;;;;1999.90;999.90;;;;;;;20.65;100.00;97928.97;18580229;32;20057;-58
2023/10/11 16:06:41;;;;;;;1999.90;999.90;;;;;;;20.39;100.00;97934.56;18580054;32;20053;-58
2023/10/11 16:16:44;;;;;;;1999.90;999.90;;;;;;;20.24;100.00;97938.66;18580721;31;20065;-58
2023/10/11 16:26:53;;;;;;;1999.90;999.90;;;;;;;19.91;100.00;97950.19;18580743;31;20045;-58
2023/10/11 16:36:56;;;;;;;1999.90;999.90;;;;;;;19.60;100.00;97945.63;18580928;31;20045;-57
2023/10/11 16:46:58;;;;;;;1999.90;999.90;;;;;;;19.30;100.00;97941.91;18625005;31;20049;-58
2023/10/11 16:57:02;;;;;;;1999.90;999.90;;;;;;;18.93;100.00;97949.59;18642044;31;20095;-58
2023/10/11 17:07:07;;;;;;;1999.90;999.90;;;;;;;18.51;100.00;97941.66;18620262;31;20043;-58
2023/10/11 17:17:10;;;;;;;1999.90;999.90;;;;;;;18.10;100.00;97950.94;18620085;31;20100;-58
2023/10/11 17:27:16;;;;;;;1999.90;999.90;;;;;;;17.51;100.00;97951.75;18633279;31;20068;-58
2023/10/11 17:37:19;;;;;;;1999.90;999.90;;;;;;;17.19;100.00;97963.72;18632590;31;20056;-58
2023/10/11 17:47:22;;;;;;;1999.90;999.90;;;;;;;16.84;100.00;97968.75;18631881;31;20131;-58
2023/10/11 17:57:26;;;;;;;1999.90;999.90;;;;;;;16.65;100.00;97985.22;18617075;31;20386;-58
2023/10/11 18:07:29;;;;;;;1999.90;999.90;;;;;;;16.36;100.00;97991.75;18629903;31;20056;-58
2023/10/11 18:17:39;;;;;;;1999.90;999.90;;;;;;;16.13;100.00;97991.63;18616162;31;20099;-58
2023/10/11 18:27:53;;;;;;;1999.90;999.90;;;;;;;15.79;100.00;98000.03;18629738;31;20159;-58
2023/10/11 18:37:56;;;;;;;1999.90;999.90;;;;;;;15.65;100.00;97989.06;18622032;31;20068;-58
2023/10/11 18:47:59;;;;;;;1999.90;999.90;;;;;;;15.30;100.00;97986.53;18628260;31;20069;-58
2023/10/11 18:58:10;;;;;;;1999.90;999.90;;;;;;;15.19;100.00;97994.03;18627859;31;20117;-58
2023/10/11 19:08:29;;;;;;;1999.90;999.90;;;;;;;14.90;100.00;98000.38;18614876;31;20440;-58
2023/10/11 19:18:31;;;;;;;1999.90;999.90;;;;;;;14.80;100.00;97997.78;18626509;31;20056;-58
2023/10/11 19:28:34;;;;;;;1999.90;999.90;;;;;;;14.65;100.00;97997.94;18599074;31;20067;-57
2023/10/11 19:38:37;;;;;;;1999.90;999.90;;;;;;;14.41;100.00;97995.97;18625380;31;20466;-57
2023/10/11 19:48:42;;;;;;;1999.90;999.90;;;;;;;14.31;100.00;97987.94;18625494;31;20044;-58
2023/10/11 19:58:45;;;;;;;1999.90;999.90;;;;;;;14.14;100.00;97994.59;18625321;31;20052;-58
2023/10/11 20:08:50;;;;;;;1999.90;999.90;;;;;;;14.08;100.00;97990.28;18624882;31;20064;-58
2023/10/11 20:18:52;;;;;;;;;;;;;;;14.03;100.00;97995.75;18611380;31;20084;-58
2023/10/11 20:28:56;;;;;;;1999.90;999.90;;;;;;;13.86;100.00;97993.47;18591363;31;19943;-58
2023/10/11 20:38:59;;;;;;;1999.90;999.90;;;;;;;13.79;100.00;97999.22;18635084;31;20065;-58
2023/10/11 20:49:02;;;;;;;1999.90;999.90;;;;;;;13.72;100.00;98015.84;18635690;31;20141;-58
2023/10/11 20:59:14;;;;;;;1999.90;999.90;;;;;;;13.69;100.00;98026.44;18635188;31;20049;-58
2023/10/11 21:09:20;;;;;;;1999.90;999.90;;;;;;;13.42;100.00;98011.41;18634656;31;20103;-58
2023/10/11 21:19:23;;;;;;;1999.90;999.90;;;;;;;13.27;100.00;98016.91;18634540;31;20086;-58
2023/10/11 21:29:25;;;;;;;1999.90;999.90;;;;;;;13.31;100.00;98023.41;18605792;31;20383;-58
2023/10/11 21:39:28;;;;;;;1999.90;999.90;;;;;;;13.21;100.00;98016.12;18632473;31;20440;-58
2023/10/11 21:49:31;;;;;;;1999.90;999.90;;;;;;;13.15;100.00;98012.59;18632292;31;20357;-58
2023/10/11 21:59:35;;;;;;;1999.90;999.90;;;;;;;13.08;100.00;98016.72;18617567;31;20088;-58
2023/10/11 22:09:41;;;;;;;1999.90;999.90;;;;;;;12.90;100.00;98015.41;18630912;31;20474;-58
2023/10/11 22:19:47;;;;;;;1999.90;999.90;;;;;;;12.79;100.00;98007.28;18623611;31;20067;-58
2023/10/11 22:30:10;;;;;;;1999.90;999.90;;;;;;;12.80;100.00;97995.34;18629682;31;20060;-58
2023/10/11 22:40:32;;;;;;;1999.90;999.90;;;;;;;12.66;100.00;97994.31;18628402;31;20159;-58
2023/10/11 22:50:51;;;;;;;1999.90;999.90;;;;;;;12.61;100.00;97983.50;18628111;31;20409;-58
2023/10/11 23:00:55;;;;;;;1999.90;999.90;;;;;;;12.56;100.00;97978.06;18612622;31;20078;-58
2023/10/11 23:11:08;;;;;;;1999.90;999.90;;;;;;;12.55;100.00;97979.94;18613092;31;20405;-58
2023/10/11 23:21:20;;;;;;;1999.90;999.90;;;;;;;12.54;100.00;97984.56;18626559;31;20531;-58
2023/10/11 23:31:25;;;;;;;1999.90;999.90;;;;;;;12.48;100.00;97974.81;18626159;31;20124;-58
2023/10/11 23:52:04;;;;;;;1999.90;999.90;;;;;;;12.13;100.00;97975.72;18231159;32;19976;-58
